To NAV CANADA Home Page Login to a new session Search on AWWS site Feedback and Comments Disclaimer Vers la page française équivalente Tips FAQ What's new on the site To the Forecasts and Observations / NOTAM section To "File a Flight Plan" website Publications and other links Update of the User's profile FIC Telephone Numbers My Weather Data Folder Route Weather Data Regional Weather Data Local Weather Data To the Forecasts and Observations / NOTAM section
Request Generated 04/24/2014 at 13:35:57 UTC . Weather information available at that time is displayed.

METAR/TAF

OTTAWA/MACDONALD-CARTIER INTL/ON    

METAR CYOW 241300Z 33015G23KT 15SM SKC 03/M08 A3004 RMK SLP176=
METAR CYOW 241200Z 32015G23KT 15SM FEW060 02/M08 A3002 RMK SC1 SC TR
SLP170=
METAR CYOW 241100Z 31015G25KT 15SM FEW060 00/M08 A3000 RMK SC1 SC TR
SLP162=

TAF CYOW 241138Z 2412/2512 32015G25KT P6SM FEW060
BECMG 2422/2424 33012KT
BECMG 2504/2506 35008KT
FM250900 03008KT P6SM SCT120
RMK NXT FCST BY 241500Z=
Your time UTC time
Weather data provided by Environment Canada and NAV CANADA